Time;durP1;ratioP1;P1;durP2;ratioP2;P2;SDS_P1;SDS_P2;PMS_P1;PMS_P2;Temp;Humidity;BMP_temperature;BMP_pressure;BME280_temperature;BME280_humidity;BME280_pressure;Samples;Min_cycle;Max_cycle;Signal;HPM_P1;HPM_P2
2023/03/05 05:30:50;;;;;;;13.73;7.85;;;7.50;62.50;;;;;;6123583;23;19971;-83
2023/03/05 05:33:15;;;;;;;11.77;7.55;;;7.50;62.70;;;;;;6127468;23;20006;-83
2023/03/05 05:35:41;;;;;;;14.57;7.75;;;7.40;62.80;;;;;;6102418;23;20064;-84
2023/03/05 05:38:08;;;;;;;15.20;8.38;;;7.40;62.50;;;;;;6105051;23;20073;-84
2023/03/05 05:40:33;;;;;;;14.07;7.53;;;7.50;62.60;;;;;;6103303;23;20005;-86
2023/03/05 05:42:59;;;;;;;12.18;7.13;;;7.50;62.20;;;;;;6130390;23;20010;-83
2023/03/05 05:45:24;;;;;;;9.23;6.78;;;7.50;62.50;;;;;;6103449;23;20153;-83
2023/03/05 05:47:52;;;;;;;15.20;7.70;;;7.50;62.60;;;;;;6103297;23;20092;-83
2023/03/05 05:50:19;;;;;;;13.43;7.40;;;7.50;61.90;;;;;;6102985;23;20017;-83
2023/03/05 05:52:45;;;;;;;11.35;7.10;;;7.50;62.40;;;;;;6129031;23;20010;-83
2023/03/05 05:55:11;;;;;;;11.90;7.05;;;7.50;61.80;;;;;;6130237;23;20013;-83
2023/03/05 05:57:37;;;;;;;11.73;7.13;;;7.60;61.70;;;;;;6129228;23;20002;-83
2023/03/05 06:00:07;;;;;;;16.13;7.13;;;7.60;61.40;;;;;;6103257;23;20012;-83
2023/03/05 06:02:33;;;;;;;;;;;7.60;61.20;;;;;;6126852;23;20001;-83
2023/03/05 06:04:59;;;;;;;16.45;7.90;;;7.50;60.70;;;;;;6129685;23;20464;-83
2023/03/05 06:07:24;;;;;;;12.25;7.60;;;7.50;60.60;;;;;;6129530;23;20346;-83
2023/03/05 06:09:50;;;;;;;14.88;7.90;;;7.50;61.00;;;;;;6129513;23;20005;-83
2023/03/05 06:12:16;;;;;;;8.00;6.00;;;7.40;60.70;;;;;;6103514;23;20010;-84
2023/03/05 06:14:41;;;;;;;11.15;6.80;;;7.40;61.30;;;;;;6129464;23;20069;-84
2023/03/05 06:17:07;;;;;;;15.63;7.82;;;7.40;61.30;;;;;;6129900;23;20083;-83
2023/03/05 06:19:32;;;;;;;9.80;6.43;;;7.40;61.70;;;;;;6129337;23;20005;-83
2023/03/05 06:22:07;;;;;;;13.68;7.95;;;7.40;61.40;;;;;;6103850;23;20010;-83
2023/03/05 06:24:33;;;;;;;10.18;6.80;;;7.50;61.20;;;;;;6103417;23;20517;-84
2023/03/05 06:26:59;;;;;;;10.77;6.38;;;7.50;61.00;;;;;;6103330;23;20014;-84
2023/03/05 06:29:24;;;;;;;14.82;6.05;;;7.60;61.00;;;;;;6104211;23;20387;-84
2023/03/05 06:31:50;;;;;;;15.93;6.78;;;7.50;61.00;;;;;;6128484;23;20014;-83
2023/03/05 06:34:16;;;;;;;9.98;6.40;;;7.50;61.10;;;;;;6129563;23;20499;-84
2023/03/05 06:36:42;;;;;;;10.70;6.75;;;7.50;61.10;;;;;;6103699;23;20351;-83
2023/03/05 06:39:08;;;;;;;11.57;7.05;;;7.50;61.00;;;;;;6129787;23;20113;-84
2023/03/05 06:41:34;;;;;;;8.40;5.68;;;7.50;61.30;;;;;;6104197;23;20177;-84
2023/03/05 06:44:03;;;;;;;11.93;6.80;;;7.50;61.60;;;;;;6129302;23;20002;-84
2023/03/05 06:46:31;;;;;;;11.75;6.10;;;7.50;61.40;;;;;;6129466;23;20013;-83
2023/03/05 06:49:00;;;;;;;8.20;5.70;;;7.50;61.50;;;;;;6129394;23;20008;-84
2023/03/05 06:51:31;;;;;;;11.75;6.55;;;7.50;61.60;;;;;;6103759;23;20005;-84
2023/03/05 06:54:07;;;;;;;10.65;6.05;;;7.50;61.50;;;;;;6103290;23;20316;-83
2023/03/05 06:56:40;;;;;;;11.35;6.15;;;7.50;61.40;;;;;;6129516;23;20012;-84
2023/03/05 06:59:06;;;;;;;10.30;6.60;;;7.50;61.00;;;;;;6128949;23;20002;-83
2023/03/05 07:01:32;;;;;;;12.40;6.53;;;7.40;61.60;;;;;;6102959;23;20029;-84
2023/03/05 07:03:59;;;;;;;11.57;5.80;;;7.30;61.90;;;;;;6129047;23;20002;-84
2023/03/05 07:06:26;;;;;;;11.18;6.82;;;7.40;62.10;;;;;;6129085;23;20010;-84
2023/03/05 07:08:57;;;;;;;7.47;5.50;;;7.40;61.60;;;;;;6128393;23;19998;-84
2023/03/05 07:11:23;;;;;;;14.20;5.68;;;7.40;61.50;;;;;;6128958;23;20002;-84
2023/03/05 07:13:50;;;;;;;9.55;5.85;;;7.50;61.40;;;;;;6129332;23;20005;-81
2023/03/05 07:16:27;;;;;;;10.75;6.75;;;7.50;61.40;;;;;;6129132;23;19994;-86
2023/03/05 07:18:55;;;;;;;9.32;5.80;;;7.50;61.40;;;;;;6103820;23;20012;-89
2023/03/05 07:21:23;;;;;;;9.88;6.07;;;7.50;61.10;;;;;;6103627;23;20114;-86
2023/03/05 07:23:51;;;;;;;11.18;6.50;;;7.50;60.60;;;;;;6103209;23;19998;-80
2023/03/05 07:26:17;;;;;;;6.90;4.93;;;7.50;60.50;;;;;;6129507;23;20009;-83
2023/03/05 07:28:43;;;;;;;12.48;6.68;;;7.50;60.60;;;;;;6128650;23;19998;-89
2023/03/05 07:31:15;;;;;;;8.93;5.70;;;7.50;60.50;;;;;;6130137;23;20018;-85
2023/03/05 07:33:40;;;;;;;11.35;7.68;;;7.50;60.70;;;;;;6128477;23;20071;-83
2023/03/05 07:36:07;;;;;;;13.40;6.97;;;7.60;60.70;;;;;;6098500;23;20002;-83
2023/03/05 07:38:33;;;;;;;12.45;6.90;;;7.60;60.50;;;;;;6128019;23;20009;-82
2023/03/05 07:41:08;;;;;;;13.07;7.03;;;7.60;60.70;;;;;;6102586;23;20013;-77
2023/03/05 07:43:34;;;;;;;18.73;6.60;;;7.60;60.80;;;;;;6128236;23;20046;-82
2023/03/05 07:46:03;;;;;;;7.13;5.38;;;7.70;60.50;;;;;;6128835;23;20002;-86
2023/03/05 07:48:29;;;;;;;13.18;5.55;;;7.70;60.30;;;;;;6102424;23;20065;-81
2023/03/05 07:51:03;;;;;;;10.82;5.50;;;7.70;60.00;;;;;;6126484;23;20014;-79
2023/03/05 07:53:29;;;;;;;15.25;6.30;;;7.80;60.10;;;;;;6126902;23;20006;-80
2023/03/05 07:55:55;;;;;;;7.97;5.10;;;7.80;60.10;;;;;;6128279;23;20013;-78
2023/03/05 07:58:20;;;;;;;11.52;5.82;;;7.80;60.20;;;;;;6107354;23;20058;-85
2023/03/05 08:00:46;;;;;;;7.40;4.43;;;7.80;60.20;;;;;;6127151;23;20078;-79
2023/03/05 08:03:12;;;;;;;8.15;5.43;;;7.80;59.90;;;;;;6121643;23;19998;-80
2023/03/05 08:05:41;;;;;;;8.55;5.63;;;7.80;59.90;;;;;;6126511;23;20008;-81
2023/03/05 08:08:07;;;;;;;9.98;4.93;;;7.80;59.90;;;;;;6127394;23;20005;-81
2023/03/05 08:10:34;;;;;;;9.98;5.55;;;7.80;60.00;;;;;;6127869;23;19998;-81
2023/03/05 08:12:59;;;;;;;9.35;6.25;;;7.80;59.80;;;;;;6127420;23;20382;-80
2023/03/05 08:15:25;;;;;;;9.02;5.88;;;7.70;59.90;;;;;;6127775;23;20010;-80
2023/03/05 08:17:51;;;;;;;8.48;5.57;;;7.80;60.50;;;;;;6127587;23;20077;-79
2023/03/05 08:20:18;;;;;;;11.85;5.32;;;7.80;60.30;;;;;;6122313;23;20422;-80
2023/03/05 08:22:44;;;;;;;10.63;5.88;;;7.80;60.30;;;;;;6129362;23;21019;-82
2023/03/05 08:25:10;;;;;;;8.07;5.10;;;7.80;61.20;;;;;;6128678;23;20044;-82
2023/03/05 08:27:40;;;;;;;9.23;5.85;;;7.80;59.20;;;;;;6128235;23;20013;-89
2023/03/05 08:30:07;;;;;;;8.50;5.72;;;7.90;60.50;;;;;;6128929;23;20341;-86
2023/03/05 08:32:33;;;;;;;6.22;4.90;;;7.90;60.30;;;;;;6129358;23;20006;-87
2023/03/05 08:35:00;;;;;;;12.18;5.80;;;8.00;60.30;;;;;;6129880;23;20508;-80
2023/03/05 08:37:26;;;;;;;9.82;7.05;;;8.00;59.70;;;;;;6128542;23;20266;-79
2023/03/05 08:39:51;;;;;;;10.13;6.72;;;8.10;60.10;;;;;;6129151;23;20002;-82
2023/03/05 08:42:17;;;;;;;36.08;21.83;;;8.10;60.00;;;;;;6128650;23;20106;-80
2023/03/05 08:44:43;;;;;;;13.02;7.20;;;8.20;59.40;;;;;;6124089;23;20002;-81
2023/03/05 08:47:08;;;;;;;11.73;6.78;;;8.20;59.50;;;;;;6126796;23;20006;-81
2023/03/05 08:49:34;;;;;;;8.48;6.20;;;8.20;59.10;;;;;;6124490;23;20452;-81
2023/03/05 08:51:59;;;;;;;10.05;5.68;;;8.20;59.30;;;;;;6121975;23;20033;-81
2023/03/05 08:54:25;;;;;;;9.15;5.75;;;8.20;58.90;;;;;;6128947;23;20006;-81
2023/03/05 08:56:51;;;;;;;10.05;5.65;;;8.20;58.70;;;;;;6118305;23;20009;-81
2023/03/05 08:59:16;;;;;;;8.50;6.30;;;8.30;58.80;;;;;;6136156;23;20021;-80
2023/03/05 09:01:42;;;;;;;11.48;6.07;;;8.30;59.20;;;;;;6152307;23;20017;-80
2023/03/05 09:04:08;;;;;;;11.45;6.32;;;8.30;58.60;;;;;;6122516;23;20009;-80
2023/03/05 09:06:38;;;;;;;10.90;6.28;;;8.30;58.70;;;;;;6155191;23;20079;-80
2023/03/05 09:09:03;;;;;;;14.15;6.80;;;8.40;58.30;;;;;;6154140;23;20373;-80
2023/03/05 09:11:29;;;;;;;10.20;5.63;;;8.40;58.30;;;;;;6153849;23;20028;-80
2023/03/05 09:13:55;;;;;;;9.82;5.95;;;8.40;57.40;;;;;;6153138;23;20041;-80
2023/03/05 09:16:20;;;;;;;11.15;7.00;;;8.50;57.30;;;;;;6154072;23;20009;-80
2023/03/05 09:18:46;;;;;;;12.30;6.38;;;8.50;57.20;;;;;;6116286;23;20033;-81
2023/03/05 09:21:14;;;;;;;9.93;6.10;;;8.50;57.50;;;;;;6130192;23;20006;-81
2023/03/05 09:23:41;;;;;;;11.57;6.70;;;8.50;57.80;;;;;;6122815;23;20010;-85
2023/03/05 09:26:10;;;;;;;14.23;7.82;;;8.50;57.50;;;;;;6122576;23;20016;-84
2023/03/05 09:28:37;;;;;;;13.73;7.43;;;8.60;57.60;;;;;;6154797;23;20012;-83
2023/03/05 09:31:03;;;;;;;11.55;6.45;;;8.60;57.20;;;;;;6156120;23;20073;-84
2023/03/05 09:33:31;;;;;;;10.75;5.82;;;8.60;57.20;;;;;;6157619;23;20437;-83
2023/03/05 09:35:56;;;;;;;9.30;5.20;;;8.60;56.90;;;;;;6156901;23;20013;-84
2023/03/05 09:38:22;;;;;;;8.05;5.28;;;8.70;57.00;;;;;;6129699;23;20444;-84
2023/03/05 09:41:02;;;;;;;13.65;6.30;;;8.70;56.80;;;;;;6131730;23;20067;-85
2023/03/05 09:44:03;;;;;;;8.45;5.57;;;8.70;56.60;;;;;;6149166;23;20005;-84
2023/03/05 09:46:44;;;;;;;8.10;6.05;;;8.70;57.10;;;;;;6063971;23;20010;-84
2023/03/05 09:49:29;;;;;;;10.60;6.43;;;8.70;56.30;;;;;;6157997;23;20057;-84
2023/03/05 09:52:06;;;;;;;10.48;5.72;;;8.70;55.80;;;;;;6131658;23;20045;-84
2023/03/05 09:54:38;;;;;;;8.15;5.40;;;8.70;55.40;;;;;;6152286;23;20121;-84
2023/03/05 09:57:05;;;;;;;9.70;5.03;;;8.70;53.60;;;;;;6157903;23;20311;-82
2023/03/05 09:59:43;;;;;;;9.70;6.28;;;8.60;54.40;;;;;;6157678;23;20429;-82
2023/03/05 10:02:22;;;;;;;9.82;5.75;;;8.70;54.80;;;;;;6155560;23;20008;-88
2023/03/05 10:05:13;;;;;;;9.38;5.50;;;8.50;53.40;;;;;;6124904;23;20002;-77
2023/03/05 10:07:42;;;;;;;8.52;5.30;;;8.60;54.70;;;;;;6149698;23;20001;-82
2023/03/05 10:10:41;;;;;;;9.57;5.78;;;8.70;54.10;;;;;;6131583;23;20017;-77
2023/03/05 10:13:20;;;;;;;7.68;5.68;;;8.70;53.80;;;;;;6123733;23;20067;-80
2023/03/05 10:16:13;;;;;;;10.68;6.13;;;8.70;53.30;;;;;;6131433;23;20001;-80
2023/03/05 10:19:09;;;;;;;10.48;5.85;;;8.80;53.60;;;;;;6150801;23;20004;-80
2023/03/05 10:21:53;;;;;;;9.60;5.88;;;8.90;53.90;;;;;;6131447;23;20476;-80
2023/03/05 10:24:18;;;;;;;11.77;6.50;;;9.10;53.60;;;;;;6158338;23;20433;-80
2023/03/05 10:26:51;;;;;;;8.73;5.28;;;9.00;51.90;;;;;;6153745;23;20067;-80
2023/03/05 10:29:53;;;;;;;8.35;6.22;;;8.80;52.30;;;;;;6157645;23;20008;-80
2023/03/05 10:32:35;;;;;;;11.32;5.78;;;8.70;53.20;;;;;;6124626;23;20041;-81
2023/03/05 10:35:20;;;;;;;9.68;6.55;;;8.80;53.50;;;;;;6157524;23;20001;-81
2023/03/05 10:38:03;;;;;;;9.25;4.88;;;8.90;53.30;;;;;;6157401;23;20009;-81
2023/03/05 10:40:45;;;;;;;9.65;5.18;;;8.80;52.90;;;;;;6152537;23;20001;-81
2023/03/05 10:43:42;;;;;;;10.18;6.78;;;8.80;53.40;;;;;;6124747;23;20009;-81
2023/03/05 10:46:14;;;;;;;10.23;6.75;;;8.60;52.70;;;;;;6156611;23;20005;-83
2023/03/05 10:48:53;;;;;;;10.27;6.88;;;8.60;52.50;;;;;;6157656;23;20027;-87
2023/03/05 10:51:40;;;;;;;10.98;7.07;;;8.60;52.60;;;;;;6126850;23;20013;-77
2023/03/05 10:54:28;;;;;;;9.88;6.07;;;8.40;52.10;;;;;;6123401;23;20076;-79
2023/03/05 10:57:03;;;;;;;8.57;6.38;;;8.40;52.80;;;;;;6156881;23;20009;-79
2023/03/05 10:59:29;;;;;;;11.68;6.43;;;8.20;52.60;;;;;;6131180;23;20025;-81
2023/03/05 11:02:07;;;;;;;7.32;5.00;;;8.30;52.90;;;;;;6126030;23;20048;-82
2023/03/05 11:04:35;;;;;;;9.50;6.07;;;8.40;53.90;;;;;;6148828;23;20464;-80
2023/03/05 11:07:17;;;;;;;9.32;6.15;;;8.50;53.00;;;;;;6130508;23;20013;-82
2023/03/05 11:10:04;;;;;;;11.10;5.63;;;8.60;53.50;;;;;;6124341;23;20014;-80
2023/03/05 11:12:37;;;;;;;13.55;7.95;;;8.80;53.20;;;;;;6124224;23;20433;-79
2023/03/05 11:15:21;;;;;;;13.70;7.80;;;9.00;53.10;;;;;;6152151;23;20414;-83
2023/03/05 11:18:03;;;;;;;14.30;7.50;;;9.10;53.20;;;;;;6156466;23;20085;-81
2023/03/05 11:20:33;;;;;;;9.32;6.65;;;9.20;53.10;;;;;;6130284;23;20001;-78
2023/03/05 11:23:13;;;;;;;7.25;4.70;;;9.20;52.30;;;;;;6126401;23;20009;-77
2023/03/05 11:25:54;;;;;;;7.88;4.97;;;9.20;52.20;;;;;;6156828;23;20009;-80
2023/03/05 11:28:25;;;;;;;6.75;4.93;;;9.20;52.20;;;;;;6156649;23;20010;-80
2023/03/05 11:31:00;;;;;;;11.07;5.82;;;9.10;51.40;;;;;;6157296;23;20460;-86
2023/03/05 11:34:06;;;;;;;7.68;5.47;;;9.20;52.60;;;;;;6127169;23;20018;-87
2023/03/05 11:36:41;;;;;;;11.57;6.70;;;9.20;52.50;;;;;;6155385;23;20048;-84
2023/03/05 11:39:45;;;;;;;6.70;4.45;;;9.30;52.30;;;;;;6131971;23;20006;-87
2023/03/05 11:42:23;;;;;;;7.97;4.95;;;9.30;51.70;;;;;;6010652;23;20044;-85
2023/03/05 11:44:55;;;;;;;7.57;4.93;;;9.50;51.40;;;;;;6047764;23;20009;-84
2023/03/05 11:47:39;;;;;;;10.63;6.00;;;9.50;50.90;;;;;;6152688;23;20006;-86
2023/03/05 11:50:20;;;;;;;9.38;5.22;;;9.60;51.20;;;;;;6132975;23;20017;-85
2023/03/05 11:52:54;;;;;;;5.60;4.70;;;9.50;51.10;;;;;;6131913;23;20021;-89
2023/03/05 11:55:29;;;;;;;8.90;4.70;;;9.50;50.20;;;;;;6159189;23;20100;-86
2023/03/05 11:58:13;;;;;;;8.35;4.75;;;9.50;51.10;;;;;;6128381;23;20009;-85
2023/03/05 12:00:44;;;;;;;7.20;5.20;;;9.60;50.90;;;;;;6159457;23;19997;-86
2023/03/05 12:06:48;;;;;;;7.00;4.35;;;9.70;50.30;;;;;;6011460;23;20065;-84
2023/03/05 12:09:16;;;;;;;9.15;4.68;;;9.70;50.50;;;;;;6006654;23;20019;-83
2023/03/05 12:11:43;;;;;;;11.10;5.07;;;9.70;50.40;;;;;;6143125;23;20008;-77
2023/03/05 12:14:31;;;;;;;7.90;5.40;;;9.70;50.50;;;;;;6159397;23;20009;-77
2023/03/05 12:17:42;;;;;;;6.13;4.95;;;9.80;50.60;;;;;;6133037;23;20016;-74
2023/03/05 12:20:36;;;;;;;6.75;4.18;;;9.70;50.30;;;;;;6006747;23;20083;-73
2023/03/05 12:23:02;;;;;;;8.30;4.95;;;9.80;50.50;;;;;;6158849;23;20410;-74
2023/03/05 12:25:46;;;;;;;7.50;4.97;;;9.70;50.00;;;;;;6159488;23;20009;-74
2023/03/05 12:28:35;;;;;;;7.75;4.75;;;9.70;49.60;;;;;;6155474;23;20028;-75
2023/03/05 12:31:15;;;;;;;7.90;4.78;;;9.70;50.30;;;;;;6156396;23;20002;-76
2023/03/05 12:33:42;;;;;;;9.70;5.47;;;9.70;50.60;;;;;;6156581;23;20002;-75
2023/03/05 12:36:20;;;;;;;7.50;4.78;;;9.70;50.90;;;;;;6130922;23;20002;-78
2023/03/05 12:38:51;;;;;;;9.55;4.65;;;9.80;50.70;;;;;;6158793;23;20012;-76
2023/03/05 12:41:22;;;;;;;8.30;5.10;;;9.80;50.50;;;;;;6133007;23;20017;-76
2023/03/05 12:44:16;;;;;;;6.20;4.22;;;9.90;50.40;;;;;;6157737;23;20489;-76
2023/03/05 12:46:44;;;;;;;8.85;4.93;;;9.90;50.50;;;;;;6158452;23;20002;-76
2023/03/05 12:49:27;;;;;;;8.85;6.07;;;10.00;50.90;;;;;;6156418;23;20001;-76
2023/03/05 12:51:59;;;;;;;10.70;7.55;;;10.00;49.60;;;;;;6155540;23;20014;-75
2023/03/05 12:54:35;;;;;;;7.07;5.50;;;9.80;49.80;;;;;;6156895;23;20424;-76
2023/03/05 12:57:16;;;;;;;8.95;5.68;;;9.80;50.20;;;;;;6154476;23;20413;-76
2023/03/05 13:00:10;;;;;;;13.57;5.32;;;9.90;50.50;;;;;;6158103;23;20021;-76
2023/03/05 13:02:44;;;;;;;9.32;5.82;;;9.80;50.00;;;;;;6132120;23;20001;-77
2023/03/05 13:05:20;;;;;;;8.60;5.15;;;9.70;49.90;;;;;;6158689;23;20097;-76
2023/03/05 13:07:47;;;;;;;9.43;5.95;;;9.80;50.40;;;;;;6158591;23;20009;-75
2023/03/05 13:10:27;;;;;;;8.85;5.82;;;9.80;50.30;;;;;;6158101;23;20001;-76
2023/03/05 13:12:57;;;;;;;9.10;5.13;;;9.90;49.90;;;;;;6158339;23;20012;-76
2023/03/05 13:15:24;;;;;;;9.32;6.10;;;9.90;50.20;;;;;;6157927;23;20084;-76
2023/03/05 13:18:02;;;;;;;8.85;5.68;;;10.00;50.00;;;;;;6131107;23;20009;-76
2023/03/05 13:20:38;;;;;;;10.88;5.38;;;10.00;49.90;;;;;;6130859;23;20012;-76
2023/03/05 13:23:22;;;;;;;7.25;5.30;;;10.00;50.50;;;;;;6153317;23;20007;-75
2023/03/05 13:26:09;;;;;;;10.52;6.35;;;10.00;50.20;;;;;;6157104;23;20117;-76
2023/03/05 13:28:38;;;;;;;9.82;7.32;;;10.00;50.40;;;;;;6130843;23;20090;-75
2023/03/05 13:31:16;;;;;;;9.50;5.18;;;10.00;50.30;;;;;;6156825;23;20437;-76
2023/03/05 13:33:53;;;;;;;8.25;5.53;;;10.10;50.00;;;;;;6155622;23;20009;-76
2023/03/05 13:36:20;;;;;;;10.23;6.20;;;10.10;50.00;;;;;;6156510;23;20001;-75
2023/03/05 13:38:47;;;;;;;7.60;4.65;;;10.10;50.20;;;;;;6127696;23;20006;-75
2023/03/05 13:41:26;;;;;;;8.43;5.25;;;10.10;49.60;;;;;;6130069;23;20033;-76
2023/03/05 13:43:56;;;;;;;8.45;5.35;;;10.20;50.00;;;;;;6129319;23;20013;-76
2023/03/05 13:46:34;;;;;;;9.02;5.03;;;10.20;49.50;;;;;;6151416;23;20719;-76
2023/03/05 13:49:17;;;;;;;11.13;5.28;;;10.20;49.20;;;;;;6156755;23;20002;-75
2023/03/05 13:51:47;;;;;;;8.85;5.68;;;10.20;49.10;;;;;;6156963;23;20032;-76
2023/03/05 13:54:15;;;;;;;9.23;5.38;;;10.20;49.10;;;;;;6149107;23;20307;-76
2023/03/05 13:56:57;;;;;;;9.50;6.47;;;10.20;48.70;;;;;;6154635;23;20009;-75
2023/03/05 13:59:29;;;;;;;11.55;5.85;;;10.20;49.50;;;;;;6154304;23;20022;-77
2023/03/05 14:02:03;;;;;;;9.75;6.03;;;10.10;49.70;;;;;;6147486;23;20009;-75
2023/03/05 14:04:40;;;;;;;9.52;5.78;;;10.10;49.00;;;;;;6151884;23;20016;-75
2023/03/05 14:07:19;;;;;;;7.85;5.03;;;10.20;49.30;;;;;;6156760;23;20001;-75
2023/03/05 14:09:50;;;;;;;7.13;4.90;;;10.30;49.40;;;;;;6157427;23;20080;-75
2023/03/05 14:12:16;;;;;;;9.15;5.10;;;10.50;49.70;;;;;;6153578;23;20524;-75
2023/03/05 14:14:43;;;;;;;12.70;5.57;;;10.60;48.90;;;;;;6155513;23;20037;-75
2023/03/05 14:17:39;;;;;;;7.72;5.38;;;10.70;48.90;;;;;;6155388;23;20005;-75
2023/03/05 14:20:22;;;;;;;10.02;5.88;;;10.80;48.80;;;;;;6156346;23;20012;-76
2023/03/05 14:22:50;;;;;;;9.27;5.30;;;10.90;48.90;;;;;;6126846;23;20520;-75
2023/03/05 14:25:42;;;;;;;8.98;5.15;;;10.80;48.20;;;;;;6156009;23;20021;-75
2023/03/05 14:28:23;;;;;;;10.27;5.10;;;10.80;47.50;;;;;;6149855;23;20464;-75
2023/03/05 14:30:52;;;;;;;9.88;5.70;;;10.80;48.30;;;;;;6131125;23;20044;-75
2023/03/05 14:33:31;;;;;;;10.90;5.43;;;10.70;49.60;;;;;;6147903;23;20381;-75
2023/03/05 14:35:59;;;;;;;9.43;5.35;;;10.70;48.50;;;;;;6156473;23;19997;-75
2023/03/05 14:38:29;;;;;;;9.85;5.25;;;10.70;48.90;;;;;;6156829;23;20003;-75
2023/03/05 14:40:56;;;;;;;9.30;6.32;;;10.60;48.70;;;;;;6156437;23;20448;-75
2023/03/05 14:43:22;;;;;;;8.73;5.55;;;10.60;48.40;;;;;;6153696;23;20011;-76
2023/03/05 14:45:48;;;;;;;9.98;6.00;;;10.60;48.50;;;;;;6143355;23;20409;-76
2023/03/05 14:48:16;;;;;;;10.23;5.78;;;10.60;48.40;;;;;;6156956;23;20476;-75
2023/03/05 14:50:53;;;;;;;15.40;7.38;;;10.60;48.70;;;;;;6157079;23;20001;-74
2023/03/05 14:53:34;;;;;;;9.98;5.90;;;10.50;48.90;;;;;;6153722;23;20009;-72
2023/03/05 14:56:00;;;;;;;;;;;10.50;49.30;;;;;;6130408;23;20008;-72
2023/03/05 14:58:31;;;;;;;7.82;4.85;;;10.50;49.10;;;;;;6155762;23;19942;-73
2023/03/05 15:00:57;;;;;;;10.00;4.47;;;10.50;49.60;;;;;;6129460;23;20084;-73
2023/03/05 15:03:24;;;;;;;9.05;5.30;;;10.50;49.60;;;;;;6130061;23;20010;-73
2023/03/05 15:05:52;;;;;;;11.27;5.72;;;10.50;49.60;;;;;;6152843;23;20037;-73
2023/03/05 15:08:21;;;;;;;11.95;5.82;;;10.40;49.10;;;;;;6129237;23;20010;-72
2023/03/05 15:10:47;;;;;;;8.43;4.97;;;10.30;48.40;;;;;;6156327;23;20123;-72
2023/03/05 15:13:14;;;;;;;10.55;6.18;;;10.30;49.00;;;;;;6122436;23;20533;-73
2023/03/05 15:15:41;;;;;;;9.30;5.25;;;10.20;48.90;;;;;;6156080;23;20009;-75
2023/03/05 15:18:09;;;;;;;9.48;5.50;;;10.20;49.50;;;;;;6153223;23;20416;-74
2023/03/05 15:20:34;;;;;;;9.13;5.82;;;10.10;49.20;;;;;;6152232;23;20029;-74
2023/03/05 15:23:00;;;;;;;9.55;5.55;;;10.10;49.60;;;;;;6149017;23;20009;-74
2023/03/05 15:25:27;;;;;;;8.13;5.50;;;10.00;49.60;;;;;;6130223;23;20448;-74
2023/03/05 15:27:53;;;;;;;11.00;5.63;;;10.00;49.50;;;;;;6156371;23;20092;-76
2023/03/05 15:30:22;;;;;;;9.80;5.88;;;10.00;49.60;;;;;;6126959;23;20009;-76
2023/03/05 15:32:49;;;;;;;9.57;4.90;;;10.00;50.10;;;;;;6158231;23;20005;-75
2023/03/05 15:35:16;;;;;;;9.75;5.28;;;10.00;49.70;;;;;;6151151;23;20008;-76
2023/03/05 15:37:41;;;;;;;12.68;6.90;;;10.10;50.30;;;;;;6151321;23;20012;-75
2023/03/05 15:40:08;;;;;;;9.60;6.07;;;10.00;49.70;;;;;;6154846;23;20341;-74
2023/03/05 15:42:33;;;;;;;11.93;6.53;;;10.00;49.50;;;;;;6131011;23;20020;-75
2023/03/05 15:44:59;;;;;;;14.75;7.10;;;10.00;49.90;;;;;;6157998;23;20006;-74
2023/03/05 15:47:25;;;;;;;13.38;6.80;;;10.00;49.80;;;;;;6156929;23;20009;-77
2023/03/05 15:49:50;;;;;;;11.20;6.20;;;10.00;49.60;;;;;;6158796;23;20096;-76
2023/03/05 15:52:16;;;;;;;8.98;5.72;;;9.90;49.90;;;;;;6155377;23;20049;-76
2023/03/05 15:54:41;;;;;;;9.18;5.35;;;9.80;49.70;;;;;;6133111;23;20096;-76
2023/03/05 15:57:09;;;;;;;7.80;5.50;;;9.80;50.00;;;;;;6151923;23;20005;-76
2023/03/05 15:59:36;;;;;;;11.18;6.30;;;9.80;49.70;;;;;;6129391;23;20045;-75
2023/03/05 16:02:01;;;;;;;11.52;6.35;;;9.80;49.80;;;;;;6155687;23;20085;-75
2023/03/05 16:04:28;;;;;;;10.80;5.75;;;9.80;49.80;;;;;;6130789;23;20468;-75
2023/03/05 16:06:55;;;;;;;14.13;6.47;;;9.90;49.90;;;;;;6132319;23;20089;-76
2023/03/05 16:09:21;;;;;;;8.02;4.97;;;9.80;49.70;;;;;;6154377;23;20009;-76
2023/03/05 16:11:50;;;;;;;10.88;5.35;;;9.70;49.20;;;;;;6144629;23;20080;-75
2023/03/05 16:14:22;;;;;;;11.45;5.07;;;9.70;49.70;;;;;;6131986;23;20006;-75
2023/03/05 16:16:50;;;;;;;15.30;6.07;;;9.70;49.60;;;;;;6157215;23;20002;-74
2023/03/05 16:19:18;;;;;;;11.30;6.00;;;9.60;48.90;;;;;;6131705;23;20014;-74
2023/03/05 16:21:44;;;;;;;9.32;5.32;;;9.60;49.50;;;;;;6153231;23;20008;-74
2023/03/05 16:24:09;;;;;;;8.35;4.65;;;9.60;50.80;;;;;;6157644;23;20001;-74
2023/03/05 16:26:36;;;;;;;10.55;5.53;;;9.70;51.10;;;;;;6157841;23;19997;-75
2023/03/05 16:29:03;;;;;;;15.73;6.95;;;9.70;51.40;;;;;;6156986;23;20008;-75
2023/03/05 16:31:32;;;;;;;9.07;5.55;;;9.70;50.30;;;;;;6157348;23;20002;-76
2023/03/05 16:33:59;;;;;;;11.07;4.72;;;9.70;50.30;;;;;;6153767;23;20001;-75
2023/03/05 16:36:29;;;;;;;11.27;6.03;;;9.70;50.70;;;;;;6158105;23;19997;-76
2023/03/05 16:38:57;;;;;;;12.45;6.45;;;9.80;50.90;;;;;;6158155;23;20072;-75
2023/03/05 16:41:23;;;;;;;12.23;6.38;;;9.80;50.60;;;;;;6155571;23;20013;-76
2023/03/05 16:43:52;;;;;;;11.30;5.93;;;9.70;50.30;;;;;;6124573;23;20396;-75
2023/03/05 16:46:18;;;;;;;12.55;6.90;;;9.70;50.50;;;;;;6127969;23;20477;-75
2023/03/05 16:48:44;;;;;;;10.18;5.50;;;9.60;50.00;;;;;;6156562;23;20010;-75
2023/03/05 16:51:11;;;;;;;9.45;5.22;;;9.60;50.30;;;;;;6156818;23;20060;-76
2023/03/05 16:53:38;;;;;;;11.68;5.82;;;9.60;50.80;;;;;;6129122;23;20096;-76
2023/03/05 16:56:05;;;;;;;13.40;6.32;;;9.60;51.00;;;;;;6128631;23;20076;-76
2023/03/05 16:58:32;;;;;;;8.63;5.88;;;9.70;50.60;;;;;;6156942;23;20020;-75
2023/03/05 17:00:58;;;;;;;10.77;5.82;;;9.60;50.30;;;;;;6152148;23;20072;-76
2023/03/05 17:03:24;;;;;;;13.38;6.85;;;9.60;50.50;;;;;;6157127;23;20002;-75
2023/03/05 17:05:50;;;;;;;8.98;5.35;;;9.50;50.10;;;;;;6156470;23;20013;-74
2023/03/05 17:08:16;;;;;;;10.70;5.72;;;9.50;50.50;;;;;;6149520;23;20006;-74
2023/03/05 17:10:42;;;;;;;9.13;5.90;;;9.50;50.80;;;;;;6156050;23;20013;-74
2023/03/05 17:13:08;;;;;;;11.45;5.72;;;9.50;51.20;;;;;;6155568;23;20088;-74
2023/03/05 17:15:34;;;;;;;10.80;5.47;;;9.50;50.90;;;;;;6150980;23;20005;-74
2023/03/05 17:18:00;;;;;;;12.23;6.43;;;9.50;51.10;;;;;;6156109;23;20005;-74
2023/03/05 17:20:26;;;;;;;11.88;6.72;;;9.50;51.20;;;;;;6154276;23;20448;-74
2023/03/05 17:22:52;;;;;;;8.82;6.07;;;9.50;51.20;;;;;;6158034;23;20006;-74
2023/03/05 17:25:18;;;;;;;13.20;6.82;;;9.40;51.30;;;;;;6157867;23;20076;-74
2023/03/05 17:27:43;;;;;;;13.63;7.63;;;9.40;51.00;;;;;;6150695;23;20006;-74
2023/03/05 17:30:09;;;;;;;13.68;6.43;;;9.40;51.40;;;;;;6131366;23;20005;-76
2023/03/05 17:32:35;;;;;;;12.15;6.20;;;9.30;51.70;;;;;;6153879;23;20089;-73
2023/03/05 17:35:01;;;;;;;12.30;6.45;;;9.30;51.60;;;;;;6156012;23;20001;-75
2023/03/05 17:37:27;;;;;;;13.27;7.00;;;9.30;51.70;;;;;;6157087;23;20004;-77
2023/03/05 17:39:52;;;;;;;11.30;7.20;;;9.30;51.80;;;;;;6124674;23;20010;-78
2023/03/05 17:42:21;;;;;;;11.02;6.05;;;9.20;51.90;;;;;;6154125;23;20457;-76
2023/03/05 17:44:47;;;;;;;10.10;7.28;;;9.20;51.90;;;;;;6131346;23;20013;-77
2023/03/05 17:47:13;;;;;;;13.95;7.97;;;9.20;52.00;;;;;;6138343;23;20015;-76
2023/03/05 17:49:39;;;;;;;15.25;6.78;;;9.20;52.10;;;;;;6157921;23;20052;-78
2023/03/05 17:52:25;;;;;;;12.40;6.38;;;9.20;52.10;;;;;;6123690;23;20020;-82
2023/03/05 17:54:51;;;;;;;9.93;5.95;;;9.20;52.20;;;;;;6129327;23;20057;-78
2023/03/05 17:57:19;;;;;;;12.15;6.60;;;9.20;52.10;;;;;;6156840;23;20001;-77
2023/03/05 17:59:45;;;;;;;10.18;5.70;;;9.10;51.90;;;;;;6156192;23;20001;-77
2023/03/05 18:02:11;;;;;;;16.70;9.48;;;9.10;52.30;;;;;;6131456;23;20009;-78
2023/03/05 18:04:36;;;;;;;12.07;7.05;;;9.10;52.40;;;;;;6131261;23;20077;-75
2023/03/05 18:07:02;;;;;;;17.88;9.55;;;9.10;52.50;;;;;;6154007;23;20006;-76
2023/03/05 18:09:28;;;;;;;13.57;6.78;;;9.10;52.50;;;;;;6129818;23;20056;-77
2023/03/05 18:11:54;;;;;;;23.20;11.00;;;9.10;52.90;;;;;;6114205;23;20084;-77
2023/03/05 18:14:20;;;;;;;29.40;13.63;;;9.00;53.10;;;;;;6157283;23;20076;-79
2023/03/05 18:16:45;;;;;;;34.15;16.30;;;9.00;53.90;;;;;;6126261;23;20893;-79
2023/03/05 18:19:11;;;;;;;28.77;13.90;;;9.00;53.80;;;;;;6129839;23;20005;-78
2023/03/05 18:21:39;;;;;;;13.38;7.60;;;9.00;53.70;;;;;;6153894;23;20040;-78
2023/03/05 18:24:05;;;;;;;14.60;5.65;;;9.00;53.10;;;;;;6131501;23;20013;-78
2023/03/05 18:26:33;;;;;;;11.07;5.32;;;8.90;53.00;;;;;;6146072;23;20001;-78
2023/03/05 18:28:59;;;;;;;12.98;6.22;;;8.90;53.00;;;;;;6152367;23;20416;-78
2023/03/05 18:31:26;;;;;;;11.85;6.43;;;8.80;53.10;;;;;;6157540;23;20009;-78
2023/03/05 18:33:51;;;;;;;12.23;6.63;;;8.80;52.90;;;;;;6128881;23;20006;-78
2023/03/05 18:36:17;;;;;;;10.30;7.20;;;8.70;53.40;;;;;;6157567;23;20004;-79
2023/03/05 18:38:43;;;;;;;15.50;7.78;;;8.70;53.40;;;;;;6145187;23;20744;-78
2023/03/05 18:41:19;;;;;;;9.00;5.60;;;8.70;53.30;;;;;;6153652;23;20508;-78
2023/03/05 18:43:49;;;;;;;10.73;6.70;;;8.70;53.60;;;;;;6130686;23;20013;-78